createdAt,value
2023-04-15T00:01:55.034Z,7.18
2023-04-15T00:04:57.602Z,7.31
2023-04-15T00:08:01.498Z,7.37
2023-04-15T00:11:06.051Z,7.30
2023-04-15T00:14:08.651Z,7.30
2023-04-15T00:17:11.028Z,7.36
2023-04-15T00:20:13.605Z,7.43
2023-04-15T00:23:16.106Z,7.52
2023-04-15T00:26:20.023Z,7.41
2023-04-15T00:29:25.332Z,7.45
2023-04-15T00:32:28.148Z,7.45
2023-04-15T00:35:32.870Z,7.56
2023-04-15T00:38:36.765Z,7.60
2023-04-15T00:41:39.826Z,7.58
2023-04-15T00:44:42.854Z,7.54
2023-04-15T00:47:46.141Z,7.56
2023-04-15T00:50:48.615Z,7.59
2023-04-15T00:53:52.163Z,7.58
2023-04-15T00:56:54.901Z,7.63
2023-04-15T00:59:57.921Z,7.60
2023-04-15T01:03:00.774Z,7.71
2023-04-15T01:06:04.212Z,7.67
2023-04-15T01:09:07.026Z,7.72
2023-04-15T01:12:13.061Z,7.70
2023-04-15T01:15:16.310Z,7.54
2023-04-15T01:18:19.497Z,7.66
2023-04-15T01:21:22.156Z,7.65
2023-04-15T01:24:27.245Z,7.64
2023-04-15T01:27:31.409Z,7.68
2023-04-15T01:30:37.128Z,7.73
2023-04-15T01:33:41.141Z,7.75
2023-04-15T01:36:44.102Z,7.71
2023-04-15T01:39:46.586Z,7.81
2023-04-15T01:42:49.377Z,7.83
2023-04-15T01:45:51.898Z,7.88
2023-04-15T01:48:54.673Z,7.95
2023-04-15T01:51:57.484Z,7.93
2023-04-15T01:55:00.006Z,7.91
2023-04-15T01:58:02.688Z,7.92
2023-04-15T02:01:05.243Z,7.93
2023-04-15T02:04:08.301Z,7.91
2023-04-15T02:07:11.592Z,7.97
2023-04-15T02:10:15.231Z,8.08
2023-04-15T02:13:18.057Z,8.06
2023-04-15T02:16:21.660Z,7.94
2023-04-15T02:19:24.675Z,7.90
2023-04-15T02:22:28.099Z,7.97
2023-04-15T02:25:30.996Z,8.02
2023-04-15T02:28:33.977Z,7.86
2023-04-15T02:31:38.242Z,7.95
2023-04-15T02:34:42.738Z,7.81
2023-04-15T02:37:46.490Z,7.88
2023-04-15T02:40:50.519Z,7.93
2023-04-15T02:43:53.714Z,7.99
2023-04-15T02:46:57.335Z,7.95
2023-04-15T02:50:01.865Z,8.05
2023-04-15T02:53:06.052Z,8.02
2023-04-15T02:56:08.912Z,7.99
2023-04-15T02:59:13.098Z,8.08
2023-04-15T03:02:16.276Z,8.14
2023-04-15T03:05:18.859Z,7.89
2023-04-15T03:08:25.818Z,7.92
2023-04-15T03:11:29.555Z,7.95
2023-04-15T03:14:32.958Z,7.91
2023-04-15T03:17:35.859Z,7.94
2023-04-15T03:20:38.851Z,7.98
2023-04-15T03:23:41.673Z,7.99
2023-04-15T03:26:44.934Z,8.07
2023-04-15T03:29:51.948Z,8.11
2023-04-15T03:32:56.483Z,7.94
2023-04-15T03:35:59.034Z,7.90
2023-04-15T03:39:04.447Z,7.88
2023-04-15T03:42:07.718Z,7.94
2023-04-15T03:45:11.045Z,8.00
2023-04-15T03:48:17.871Z,7.89
2023-04-15T03:51:22.335Z,7.91
2023-04-15T03:54:25.841Z,7.86
2023-04-15T03:57:28.303Z,7.84
2023-04-15T04:00:30.782Z,7.89
2023-04-15T04:03:33.837Z,7.86
2023-04-15T04:06:36.704Z,7.85
2023-04-15T04:09:41.749Z,7.85
2023-04-15T04:12:44.244Z,7.90
2023-04-15T04:15:46.809Z,7.98
2023-04-15T04:18:50.061Z,7.97
2023-04-15T04:21:56.733Z,8.05
2023-04-15T04:25:11.032Z,8.01
2023-04-15T04:28:17.095Z,8.06
2023-04-15T04:31:20.250Z,8.12
2023-04-15T04:34:23.428Z,8.22
2023-04-15T04:37:26.173Z,8.27
2023-04-15T04:40:29.053Z,8.14
2023-04-15T04:43:32.014Z,8.33
2023-04-15T04:46:34.580Z,8.39
2023-04-15T04:49:38.230Z,8.42
2023-04-15T04:52:42.031Z,8.36
2023-04-15T04:55:44.588Z,8.41
2023-04-15T04:58:48.119Z,8.53
2023-04-15T05:01:50.955Z,8.27
2023-04-15T05:04:54.892Z,8.30
2023-04-15T05:07:58.462Z,8.16
2023-04-15T05:11:01.992Z,8.18
2023-04-15T05:14:05.418Z,8.36
2023-04-15T05:17:09.129Z,8.37
2023-04-15T05:20:12.526Z,8.37
2023-04-15T05:23:15.499Z,8.61
2023-04-15T05:26:18.847Z,8.92
2023-04-15T05:29:22.340Z,9.02
2023-04-15T05:32:25.263Z,9.01
2023-04-15T05:35:28.020Z,9.22
2023-04-15T05:38:31.226Z,9.06
2023-04-15T05:41:34.791Z,9.10
2023-04-15T05:44:37.614Z,9.17
2023-04-15T05:47:41.124Z,9.34
2023-04-15T05:50:44.061Z,9.42
2023-04-15T05:53:46.838Z,9.63
2023-04-15T05:56:50.796Z,9.82
2023-04-15T05:59:53.755Z,10.07
2023-04-15T06:02:58.366Z,9.58
2023-04-15T06:06:02.772Z,9.70
2023-04-15T06:09:05.689Z,9.81
2023-04-15T06:12:12.472Z,10.02
2023-04-15T06:15:16.010Z,9.83
2023-04-15T06:18:18.550Z,9.93
2023-04-15T06:21:21.265Z,10.15
2023-04-15T06:24:23.912Z,10.14
2023-04-15T06:27:26.892Z,10.52
2023-04-15T06:30:30.211Z,10.10
2023-04-15T06:33:34.095Z,10.38
2023-04-15T06:36:36.849Z,10.56
2023-04-15T06:39:40.722Z,10.81
2023-04-15T06:42:44.400Z,10.92
2023-04-15T06:45:47.794Z,11.11
2023-04-15T06:48:50.473Z,11.13
2023-04-15T06:51:54.546Z,11.10
2023-04-15T06:54:59.992Z,10.80
2023-04-15T06:58:03.183Z,10.65
2023-04-15T07:01:06.158Z,10.68
2023-04-15T07:04:08.950Z,10.70
2023-04-15T07:07:11.701Z,10.78
2023-04-15T07:10:15.981Z,10.92
2023-04-15T07:13:20.220Z,11.28
2023-04-15T07:16:23.258Z,11.45
2023-04-15T07:19:26.763Z,11.83
2023-04-15T07:22:31.872Z,11.95
2023-04-15T07:25:34.601Z,11.84
2023-04-15T07:28:37.604Z,11.96
2023-04-15T07:31:42.572Z,11.65
2023-04-15T07:34:45.232Z,12.21
2023-04-15T07:37:49.397Z,12.36
2023-04-15T07:40:52.663Z,12.37
2023-04-15T07:43:55.455Z,12.38
2023-04-15T07:46:57.894Z,12.60
2023-04-15T07:50:01.176Z,12.58
2023-04-15T07:53:04.469Z,13.16
2023-04-15T07:56:07.456Z,13.45
2023-04-15T07:59:10.869Z,13.50
2023-04-15T08:02:14.877Z,12.97
2023-04-15T08:05:17.462Z,12.40
2023-04-15T08:08:20.870Z,12.77
2023-04-15T08:11:28.062Z,13.05
2023-04-15T08:14:30.817Z,13.22
2023-04-15T08:17:35.928Z,13.47
2023-04-15T08:20:39.028Z,13.68
2023-04-15T08:23:41.624Z,13.95
2023-04-15T08:26:44.432Z,13.24
2023-04-15T08:29:47.224Z,13.01
2023-04-15T08:32:51.323Z,12.73
2023-04-15T08:35:54.242Z,13.02
2023-04-15T08:38:56.747Z,13.21
2023-04-15T08:42:03.606Z,13.09
2023-04-15T08:45:06.577Z,12.69
2023-04-15T08:48:09.682Z,12.97
2023-04-15T08:51:16.295Z,12.75
2023-04-15T08:54:19.938Z,13.26
2023-04-15T08:57:28.073Z,13.00
2023-04-15T09:00:30.821Z,12.95
2023-04-15T09:03:33.805Z,12.80
2023-04-15T09:06:36.633Z,13.74
2023-04-15T09:09:40.317Z,14.23
2023-04-15T09:12:42.881Z,14.09
2023-04-15T09:15:45.798Z,13.91
2023-04-15T09:18:48.790Z,13.72
2023-04-15T09:21:59.813Z,13.74
2023-04-15T09:25:02.268Z,13.98
2023-04-15T09:28:04.804Z,14.23
2023-04-15T09:31:08.465Z,14.08
2023-04-15T09:34:12.112Z,14.27
2023-04-15T09:37:28.981Z,14.66
2023-04-15T09:40:41.964Z,14.12
2023-04-15T09:43:45.226Z,13.89
2023-04-15T09:46:47.956Z,13.82
2023-04-15T09:50:00.496Z,13.64
2023-04-15T09:53:04.373Z,14.04
2023-04-15T09:56:09.076Z,14.22
2023-04-15T09:59:11.566Z,14.22
2023-04-15T10:02:14.584Z,13.98
2023-04-15T10:05:18.052Z,13.80
2023-04-15T10:08:21.924Z,14.29
2023-04-15T10:11:24.776Z,14.47
2023-04-15T10:14:27.396Z,13.67
2023-04-15T10:17:31.812Z,13.38
2023-04-15T10:20:34.382Z,13.81
2023-04-15T10:23:36.852Z,13.90
2023-04-15T10:26:39.352Z,13.87
2023-04-15T10:29:41.801Z,13.83
2023-04-15T10:32:44.774Z,13.52
2023-04-15T10:35:47.679Z,14.13
2023-04-15T10:38:50.200Z,14.50
2023-04-15T10:42:27.502Z,14.34
2023-04-15T10:45:34.794Z,14.07
2023-04-15T10:48:37.338Z,14.08
2023-04-15T10:51:42.276Z,14.70
2023-04-15T10:54:44.928Z,14.88
2023-04-15T10:57:52.684Z,14.09
2023-04-15T11:00:55.537Z,13.36
2023-04-15T11:03:58.167Z,12.87
2023-04-15T11:07:07.239Z,12.77
2023-04-15T11:10:31.869Z,12.72
2023-04-15T11:13:59.791Z,12.75
2023-04-15T11:17:11.151Z,12.80
2023-04-15T11:20:27.185Z,12.90
2023-04-15T11:23:40.815Z,12.99
2023-04-15T11:26:43.303Z,13.19
2023-04-15T11:29:45.690Z,13.81
2023-04-15T11:32:50.251Z,13.84
2023-04-15T11:35:54.349Z,13.79
2023-04-15T11:38:57.929Z,13.78
2023-04-15T11:42:00.580Z,13.98
2023-04-15T11:45:13.569Z,13.89
2023-04-15T11:48:16.483Z,14.04
2023-04-15T11:51:21.927Z,14.38
2023-04-15T11:54:30.896Z,13.92
2023-04-15T11:57:33.377Z,13.71
2023-04-15T12:00:35.960Z,13.71
2023-04-15T12:03:40.314Z,13.90
2023-04-15T12:06:43.145Z,14.64
2023-04-15T12:09:45.864Z,14.11
2023-04-15T12:12:52.741Z,13.44
2023-04-15T12:15:56.175Z,13.86
2023-04-15T12:19:01.080Z,15.32
2023-04-15T12:22:12.264Z,15.04
2023-04-15T12:25:14.944Z,14.21
2023-04-15T12:28:17.577Z,13.71
2023-04-15T12:31:20.549Z,13.40
2023-04-15T12:34:32.384Z,12.95
2023-04-15T12:37:34.777Z,13.11
2023-04-15T12:40:37.158Z,13.27
2023-04-15T12:43:40.747Z,13.20
2023-04-15T12:46:43.503Z,13.55
2023-04-15T12:49:47.209Z,13.81
2023-04-15T12:52:49.950Z,13.67
2023-04-15T12:55:52.728Z,13.71
2023-04-15T12:58:55.266Z,13.56
2023-04-15T13:01:58.605Z,13.40
2023-04-15T13:05:01.394Z,13.30
2023-04-15T13:08:05.352Z,13.32
2023-04-15T13:11:07.795Z,13.52
2023-04-15T13:14:11.944Z,13.30
2023-04-15T13:17:14.547Z,13.38
2023-04-15T13:20:17.584Z,13.47
2023-04-15T13:23:20.307Z,13.31
2023-04-15T13:26:23.978Z,13.33
2023-04-15T13:29:27.024Z,13.43
2023-04-15T13:32:29.466Z,13.26
2023-04-15T13:35:32.713Z,13.39
2023-04-15T13:38:35.837Z,13.35
2023-04-15T13:41:38.206Z,12.83
2023-04-15T13:44:40.808Z,12.88
2023-04-15T13:47:44.227Z,12.58
2023-04-15T13:50:47.033Z,12.62
2023-04-15T13:53:50.141Z,13.12
2023-04-15T13:56:52.568Z,12.99
2023-04-15T13:59:55.663Z,13.08
2023-04-15T14:02:58.461Z,12.73
2023-04-15T14:06:01.217Z,12.72
2023-04-15T14:09:04.304Z,12.80
2023-04-15T14:12:06.946Z,12.86
2023-04-15T14:15:09.933Z,12.88
2023-04-15T14:18:12.541Z,12.94
2023-04-15T14:21:15.068Z,12.51
2023-04-15T14:24:17.931Z,12.50
2023-04-15T14:27:20.738Z,12.71
2023-04-15T14:30:23.163Z,12.67
2023-04-15T14:33:26.459Z,12.70
2023-04-15T14:36:29.586Z,12.64
2023-04-15T14:39:33.483Z,12.85
2023-04-15T14:42:36.800Z,12.97
2023-04-15T14:45:42.170Z,12.93
2023-04-15T14:48:46.960Z,13.07
2023-04-15T14:51:49.562Z,13.22
2023-04-15T14:54:52.367Z,13.26
2023-04-15T14:57:55.064Z,13.43
2023-04-15T15:00:58.527Z,13.13
2023-04-15T15:04:01.398Z,13.35
2023-04-15T15:07:04.233Z,13.45
2023-04-15T15:10:07.279Z,13.39
2023-04-15T15:13:10.774Z,13.40
2023-04-15T15:16:14.649Z,13.35
2023-04-15T15:19:17.222Z,13.11
2023-04-15T15:22:21.338Z,12.57
2023-04-15T15:25:23.933Z,12.25
2023-04-15T15:28:27.364Z,12.17
2023-04-15T15:31:29.910Z,12.30
2023-04-15T15:34:32.473Z,12.40
2023-04-15T15:37:35.701Z,12.29
2023-04-15T15:40:38.017Z,12.17
2023-04-15T15:43:40.450Z,12.02
2023-04-15T15:46:42.873Z,12.10
2023-04-15T15:49:46.612Z,11.86
2023-04-15T15:52:50.161Z,11.95
2023-04-15T15:55:53.987Z,12.03
2023-04-15T15:58:56.710Z,12.08
2023-04-15T16:02:00.405Z,11.96
2023-04-15T16:05:03.156Z,12.07
2023-04-15T16:08:06.248Z,11.93
2023-04-15T16:11:08.774Z,11.82
2023-04-15T16:14:11.709Z,11.71
2023-04-15T16:17:14.190Z,11.62
2023-04-15T16:20:16.924Z,11.54
2023-04-15T16:23:20.279Z,11.61
2023-04-15T16:26:23.474Z,11.66
2023-04-15T16:29:26.306Z,11.77
2023-04-15T16:32:28.868Z,11.79
2023-04-15T16:35:34.475Z,11.47
2023-04-15T16:38:37.306Z,11.43
2023-04-15T16:41:39.862Z,11.15
2023-04-15T16:44:42.374Z,11.23
2023-04-15T16:47:44.990Z,11.11
2023-04-15T16:50:48.040Z,11.05
2023-04-15T16:53:50.892Z,11.02
2023-04-15T16:56:53.460Z,10.95
2023-04-15T16:59:56.277Z,10.96
2023-04-15T17:03:00.335Z,11.08
2023-04-15T17:06:02.966Z,11.13
2023-04-15T17:09:06.695Z,11.06
2023-04-15T17:12:09.607Z,11.03
2023-04-15T17:15:12.328Z,11.02
2023-04-15T17:18:14.977Z,10.90
2023-04-15T17:21:17.984Z,10.93
2023-04-15T17:24:20.560Z,11.01
2023-04-15T17:27:24.814Z,10.78
2023-04-15T17:30:27.710Z,10.64
2023-04-15T17:33:56.295Z,10.73
2023-04-15T17:36:53.817Z,10.74
2023-04-15T17:39:57.248Z,10.86
2023-04-15T17:43:00.217Z,10.91
2023-04-15T17:46:03.253Z,10.76
2023-04-15T17:49:06.839Z,10.76
2023-04-15T17:52:10.001Z,10.88
2023-04-15T17:55:13.032Z,10.68
2023-04-15T17:58:15.606Z,10.59
2023-04-15T18:01:18.197Z,10.41
2023-04-15T18:04:23.243Z,10.43
2023-04-15T18:07:27.676Z,10.28
2023-04-15T18:10:30.302Z,10.28
2023-04-15T18:13:32.965Z,10.19
2023-04-15T18:16:35.752Z,10.23
2023-04-15T18:19:38.559Z,10.24
2023-04-15T18:22:41.428Z,10.30
2023-04-15T18:25:45.285Z,10.36
2023-04-15T18:28:47.750Z,10.39
2023-04-15T18:31:51.473Z,10.49
2023-04-15T18:34:55.633Z,10.34
2023-04-15T18:38:01.194Z,10.18
2023-04-15T18:41:05.508Z,10.10
2023-04-15T18:44:08.173Z,10.08
2023-04-15T18:47:10.682Z,10.04
2023-04-15T18:50:13.588Z,10.03
2023-04-15T18:53:16.896Z,10.09
2023-04-15T18:56:19.166Z,10.14
2023-04-15T18:59:29.686Z,10.16
2023-04-15T19:02:33.258Z,10.18
2023-04-15T19:05:36.445Z,9.96
2023-04-15T19:08:39.232Z,9.88
2023-04-15T19:11:43.796Z,9.82
2023-04-15T19:14:46.815Z,9.77
2023-04-15T19:17:49.525Z,9.78
2023-04-15T19:20:52.921Z,9.83
2023-04-15T19:23:56.606Z,9.86
2023-04-15T19:26:59.333Z,9.91
2023-04-15T19:30:03.528Z,9.92
2023-04-15T19:33:06.269Z,9.81
2023-04-15T19:36:08.766Z,9.81
2023-04-15T19:39:11.802Z,9.80
2023-04-15T19:42:14.612Z,9.71
2023-04-15T19:45:17.234Z,9.72
2023-04-15T19:48:20.436Z,9.78
2023-04-15T19:51:23.986Z,9.76
2023-04-15T19:54:27.117Z,9.60
2023-04-15T19:57:29.764Z,9.49
2023-04-15T20:00:32.589Z,9.46
2023-04-15T20:03:35.559Z,9.56
2023-04-15T20:06:38.208Z,9.50
2023-04-15T20:09:43.978Z,9.56
2023-04-15T20:12:52.245Z,9.61
2023-04-15T20:15:55.851Z,9.65
2023-04-15T20:19:08.595Z,9.65
2023-04-15T20:22:11.054Z,9.67
2023-04-15T20:25:13.712Z,9.71
2023-04-15T20:28:18.184Z,9.76
2023-04-15T20:31:21.870Z,9.78
2023-04-15T20:34:24.469Z,9.72
2023-04-15T20:37:27.011Z,9.72
2023-04-15T20:40:29.555Z,9.67
2023-04-15T20:43:32.258Z,9.70
2023-04-15T20:46:34.836Z,9.65
2023-04-15T20:49:38.130Z,9.65
2023-04-15T20:52:40.494Z,9.58
2023-04-15T20:55:46.000Z,9.45
2023-04-15T20:58:48.500Z,9.55
2023-04-15T21:01:51.731Z,9.55
2023-04-15T21:04:54.278Z,9.55
2023-04-15T21:07:57.006Z,9.53
2023-04-15T21:10:59.662Z,9.53
2023-04-15T21:14:02.435Z,9.50
2023-04-15T21:17:10.797Z,9.42
2023-04-15T21:20:14.414Z,9.40
2023-04-15T21:23:16.864Z,9.39
2023-04-15T21:26:19.277Z,9.49
2023-04-15T21:29:22.268Z,9.47
2023-04-15T21:32:25.667Z,9.52
2023-04-15T21:35:28.977Z,9.51
2023-04-15T21:38:31.405Z,9.46
2023-04-15T21:41:33.779Z,9.45
2023-04-15T21:44:36.250Z,9.41
2023-04-15T21:48:01.249Z,9.29
2023-04-15T21:51:01.932Z,9.30
2023-04-15T21:54:05.360Z,9.29
2023-04-15T21:57:07.934Z,9.20
2023-04-15T22:00:12.024Z,9.14
2023-04-15T22:03:15.162Z,9.06
2023-04-15T22:06:18.028Z,9.02
2023-04-15T22:09:20.606Z,9.06
2023-04-15T22:12:23.711Z,9.06
2023-04-15T22:15:26.230Z,8.92
2023-04-15T22:18:28.762Z,8.94
2023-04-15T22:21:31.982Z,8.95
2023-04-15T22:24:39.841Z,8.97
2023-04-15T22:27:43.684Z,8.96
2023-04-15T22:30:46.587Z,8.98
2023-04-15T22:33:49.513Z,9.00
2023-04-15T22:36:52.301Z,8.95
2023-04-15T22:39:54.692Z,8.92
2023-04-15T22:42:57.159Z,8.91
2023-04-15T22:46:00.925Z,8.87
2023-04-15T22:49:06.289Z,8.87
2023-04-15T22:52:14.428Z,8.87
2023-04-15T22:55:22.736Z,8.86
2023-04-15T22:58:25.238Z,8.86
2023-04-15T23:01:28.001Z,8.87
2023-04-15T23:04:30.883Z,8.85
2023-04-15T23:07:33.423Z,8.85
2023-04-15T23:10:36.153Z,8.79
2023-04-15T23:13:38.936Z,8.82
2023-04-15T23:16:41.592Z,8.82
2023-04-15T23:19:45.274Z,8.69
2023-04-15T23:22:49.102Z,8.78
2023-04-15T23:25:51.814Z,8.81
2023-04-15T23:28:54.390Z,8.83
2023-04-15T23:31:57.233Z,8.89
2023-04-15T23:35:00.133Z,8.86
2023-04-15T23:38:02.764Z,8.90
2023-04-15T23:41:05.355Z,8.94
2023-04-15T23:44:09.658Z,8.82
2023-04-15T23:47:12.286Z,8.77
2023-04-15T23:50:14.783Z,8.70
2023-04-15T23:53:17.660Z,8.77
2023-04-15T23:56:20.967Z,8.70
2023-04-15T23:59:23.344Z,8.65
